Time;durP1;ratioP1;P1;durP2;ratioP2;P2;SDS_P1;SDS_P2;PMS_P1;PMS_P2;Temp;Humidity;BMP_temperature;BMP_pressure;BME280_temperature;BME280_humidity;BME280_pressure;Samples;Min_cycle;Max_cycle;Signal;HPM_P1;HPM_P2
2023/06/14 00:01:55;;;;;;;5.90;2.22;;;;;;;;;;5079764;28;20136;-70
2023/06/14 00:04:25;;;;;;;5.25;2.40;;;;;;;;;;5079832;28;20413;-70
2023/06/14 00:06:51;;;;;;;5.28;2.70;;;;;;;;;;5082037;28;20140;-70
2023/06/14 00:09:17;;;;;;;8.02;3.00;;;;;;;;;;5084934;28;20044;-71
2023/06/14 00:11:45;;;;;;;6.15;2.80;;;;;;;;;;5086758;28;20044;-70
2023/06/14 00:14:11;;;;;;;5.10;3.00;;;;;;;;;;5086477;28;20052;-71
2023/06/14 00:16:38;;;;;;;7.97;2.60;;;;;;;;;;5084009;28;20448;-70
2023/06/14 00:19:05;;;;;;;4.95;2.75;;;;;;;;;;5085435;28;20040;-70
2023/06/14 00:21:31;;;;;;;6.63;3.13;;;;;;;;;;5091054;28;20543;-69
2023/06/14 00:23:58;;;;;;;5.15;2.78;;;;;;;;;;5086107;28;20044;-70
2023/06/14 00:26:26;;;;;;;7.03;2.75;;;;;;;;;;5089443;28;20506;-70
2023/06/14 00:28:57;;;;;;;4.00;2.65;;;;;;;;;;5087037;28;20050;-71
2023/06/14 00:31:26;;;;;;;6.68;2.88;;;;;;;;;;5082820;28;20033;-70
2023/06/14 00:33:52;;;;;;;5.85;2.60;;;;;;;;;;5086603;28;20135;-72
2023/06/14 00:36:18;;;;;;;4.30;2.50;;;;;;;;;;5084314;28;20116;-68
2023/06/14 00:38:46;;;;;;;5.53;2.70;;;;;;;;;;5085158;28;20052;-69
2023/06/14 00:41:11;;;;;;;5.38;2.50;;;;;;;;;;5084775;28;20127;-68
2023/06/14 00:43:37;;;;;;;4.60;2.72;;;;;;;;;;5086268;28;20555;-70
2023/06/14 00:46:03;;;;;;;7.75;2.88;;;;;;;;;;5089077;28;20148;-71
2023/06/14 00:48:31;;;;;;;4.03;2.70;;;;;;;;;;5080439;28;20051;-68
2023/06/14 00:50:58;;;;;;;3.78;2.60;;;;;;;;;;5068301;28;20044;-69
2023/06/14 00:53:26;;;;;;;8.07;2.53;;;;;;;;;;5078051;28;20044;-73
2023/06/14 00:55:54;;;;;;;4.18;2.70;;;;;;;;;;5086946;28;20133;-71
2023/06/14 00:58:22;;;;;;;8.05;3.00;;;;;;;;;;5083121;28;20052;-69
2023/06/14 01:00:48;;;;;;;6.90;2.97;;;;;;;;;;5088057;28;20052;-71
2023/06/14 01:03:21;;;;;;;3.53;2.30;;;;;;;;;;5081774;28;20062;-71
2023/06/14 01:05:54;;;;;;;4.13;2.50;;;;;;;;;;5085320;28;20879;-70
2023/06/14 01:08:46;;;;;;;5.35;2.70;;;;;;;;;;5087111;28;20118;-70
2023/06/14 01:11:31;;;;;;;6.03;2.63;;;;;;;;;;5084048;28;20134;-70
2023/06/14 01:14:01;;;;;;;5.30;2.80;;;;;;;;;;5091097;28;20048;-70
2023/06/14 01:16:29;;;;;;;5.40;3.00;;;;;;;;;;5082136;28;20416;-70
2023/06/14 01:18:57;;;;;;;7.40;3.05;;;;;;;;;;5085502;28;20055;-71
2023/06/14 01:21:25;;;;;;;4.82;2.97;;;;;;;;;;5085000;28;20032;-70
2023/06/14 01:23:52;;;;;;;8.73;3.10;;;;;;;;;;5087845;28;20048;-70
2023/06/14 01:26:22;;;;;;;7.22;3.30;;;;;;;;;;5084371;28;20142;-69
2023/06/14 01:28:50;;;;;;;9.50;3.10;;;;;;;;;;5079944;28;20032;-69
2023/06/14 01:31:21;;;;;;;6.03;3.63;;;;;;;;;;5080451;28;20044;-71
2023/06/14 01:33:52;;;;;;;5.65;3.75;;;;;;;;;;5084887;28;20130;-70
2023/06/14 01:36:22;;;;;;;7.97;3.90;;;;;;;;;;5085895;28;20051;-69
2023/06/14 01:38:50;;;;;;;7.18;3.90;;;;;;;;;;5085386;28;20060;-70
2023/06/14 01:41:18;;;;;;;11.40;3.63;;;;;;;;;;5090960;28;20119;-68
2023/06/14 01:43:48;;;;;;;7.47;3.60;;;;;;;;;;5087384;28;20056;-69
2023/06/14 01:46:15;;;;;;;10.10;4.07;;;;;;;;;;5083281;28;20060;-68
2023/06/14 01:48:41;;;;;;;9.43;3.83;;;;;;;;;;5084614;28;20063;-71
2023/06/14 01:51:07;;;;;;;9.07;3.90;;;;;;;;;;5087491;28;20146;-69
2023/06/14 01:53:33;;;;;;;7.28;4.47;;;;;;;;;;5084159;28;20044;-70
2023/06/14 01:56:01;;;;;;;15.02;4.18;;;;;;;;;;5082197;28;20052;-68
2023/06/14 01:58:31;;;;;;;8.20;4.57;;;;;;;;;;5088230;28;20072;-70
2023/06/14 02:00:57;;;;;;;8.23;4.45;;;;;;;;;;5087198;28;20515;-70
2023/06/14 02:03:25;;;;;;;9.23;3.95;;;;;;;;;;5087662;28;20055;-70
2023/06/14 02:05:55;;;;;;;8.90;3.92;;;;;;;;;;5070911;28;20046;-70
2023/06/14 02:08:23;;;;;;;7.75;3.85;;;;;;;;;;5083364;28;20070;-68
2023/06/14 02:10:49;;;;;;;9.18;4.38;;;;;;;;;;5087072;28;20044;-70
2023/06/14 02:13:15;;;;;;;6.55;3.78;;;;;;;;;;5078074;28;20461;-68
2023/06/14 02:15:43;;;;;;;6.78;3.83;;;;;;;;;;5085127;28;20044;-68
2023/06/14 02:18:10;;;;;;;7.30;3.60;;;;;;;;;;5084226;28;20124;-68
2023/06/14 02:20:37;;;;;;;7.25;4.22;;;;;;;;;;5083561;28;20127;-67
2023/06/14 02:23:03;;;;;;;5.32;3.78;;;;;;;;;;5085062;28;20049;-69
2023/06/14 02:25:28;;;;;;;8.10;3.92;;;;;;;;;;5087948;28;20054;-67
2023/06/14 02:27:55;;;;;;;9.68;3.60;;;;;;;;;;5086631;28;20062;-68
2023/06/14 02:30:21;;;;;;;5.53;3.58;;;;;;;;;;5098145;28;20059;-67
2023/06/14 02:32:48;;;;;;;8.27;4.05;;;;;;;;;;5085191;28;20048;-68
2023/06/14 02:35:14;;;;;;;7.13;3.88;;;;;;;;;;5087691;28;20790;-67
2023/06/14 02:37:40;;;;;;;8.75;3.58;;;;;;;;;;5085558;28;20457;-68
2023/06/14 02:40:08;;;;;;;7.90;3.83;;;;;;;;;;5093749;28;20048;-70
2023/06/14 02:42:36;;;;;;;7.28;3.05;;;;;;;;;;5093186;28;20495;-68
2023/06/14 02:45:03;;;;;;;9.57;2.95;;;;;;;;;;5094884;28;20063;-69
2023/06/14 02:47:30;;;;;;;8.27;2.70;;;;;;;;;;5099012;27;20044;-70
2023/06/14 02:49:57;;;;;;;6.13;2.75;;;;;;;;;;5088570;28;20096;-69
2023/06/14 02:52:25;;;;;;;4.70;2.70;;;;;;;;;;5088275;28;20047;-70
2023/06/14 02:54:51;;;;;;;3.60;2.33;;;;;;;;;;5080069;28;20105;-71
2023/06/14 02:57:19;;;;;;;3.83;2.50;;;;;;;;;;5093885;27;20300;-70
2023/06/14 02:59:44;;;;;;;5.53;2.50;;;;;;;;;;5084982;28;20056;-68
2023/06/14 03:02:10;;;;;;;9.82;2.95;;;;;;;;;;5084037;28;20414;-71
2023/06/14 03:04:37;;;;;;;9.85;3.25;;;;;;;;;;5082975;28;20048;-70
2023/06/14 03:07:10;;;;;;;5.90;2.83;;;;;;;;;;5082751;28;20075;-69
2023/06/14 03:09:37;;;;;;;4.72;2.72;;;;;;;;;;5085039;28;20966;-70
2023/06/14 03:12:04;;;;;;;6.43;2.63;;;;;;;;;;5085200;28;20059;-69
2023/06/14 03:14:31;;;;;;;7.38;2.88;;;;;;;;;;5092343;28;20491;-71
2023/06/14 03:16:57;;;;;;;6.45;2.90;;;;;;;;;;5082239;28;20113;-69
2023/06/14 03:19:23;;;;;;;4.25;2.70;;;;;;;;;;5086433;28;20660;-69
2023/06/14 03:21:49;;;;;;;5.97;2.85;;;;;;;;;;5078202;28;20044;-69
2023/06/14 03:24:19;;;;;;;5.93;3.13;;;;;;;;;;5080991;28;20452;-69
2023/06/14 03:26:46;;;;;;;6.40;2.88;;;;;;;;;;5080915;28;21334;-70
2023/06/14 03:29:13;;;;;;;6.20;3.00;;;;;;;;;;5083838;28;20495;-69
2023/06/14 03:31:58;;;;;;;4.25;2.88;;;;;;;;;;5082551;28;20047;-71
2023/06/14 03:34:24;;;;;;;6.43;2.55;;;;;;;;;;5082374;28;20040;-67
2023/06/14 03:36:50;;;;;;;8.02;2.80;;;;;;;;;;5084591;28;20451;-68
2023/06/14 03:39:16;;;;;;;5.43;2.63;;;;;;;;;;5086506;28;20456;-67
2023/06/14 03:41:44;;;;;;;5.65;2.33;;;;;;;;;;5083404;28;20177;-69
2023/06/14 03:44:10;;;;;;;4.82;2.30;;;;;;;;;;5087676;28;20055;-70
2023/06/14 03:46:36;;;;;;;4.63;2.80;;;;;;;;;;5085963;28;20575;-68
2023/06/14 03:49:05;;;;;;;10.40;2.60;;;;;;;;;;5090654;28;20039;-69
2023/06/14 03:51:34;;;;;;;5.70;2.35;;;;;;;;;;5082836;28;20087;-69
2023/06/14 03:54:01;;;;;;;4.32;2.40;;;;;;;;;;5084732;28;20063;-69
2023/06/14 03:56:27;;;;;;;5.63;2.30;;;;;;;;;;5083649;28;20075;-72
2023/06/14 03:58:53;;;;;;;4.43;2.38;;;;;;;;;;5089002;28;20547;-68
2023/06/14 04:01:21;;;;;;;4.18;2.80;;;;;;;;;;5086084;28;20105;-69
2023/06/14 04:03:48;;;;;;;5.28;2.40;;;;;;;;;;5084271;28;20040;-69
2023/06/14 04:06:19;;;;;;;4.95;2.50;;;;;;;;;;5085948;28;20048;-68
2023/06/14 04:08:49;;;;;;;6.88;2.53;;;;;;;;;;5085993;28;20431;-67
2023/06/14 04:11:16;;;;;;;5.35;2.58;;;;;;;;;;5081914;28;20664;-70
2023/06/14 04:13:44;;;;;;;4.78;2.45;;;;;;;;;;5086431;28;20055;-70
2023/06/14 04:16:09;;;;;;;6.88;3.00;;;;;;;;;;5082679;28;20097;-70
2023/06/14 04:18:36;;;;;;;7.03;3.17;;;;;;;;;;5086248;28;20519;-69
2023/06/14 04:21:02;;;;;;;5.80;3.08;;;;;;;;;;5063966;28;20108;-68
2023/06/14 04:23:32;;;;;;;6.45;2.80;;;;;;;;;;5086075;28;20117;-69
2023/06/14 04:26:02;;;;;;;5.93;2.65;;;;;;;;;;5079410;28;20062;-69
2023/06/14 04:28:28;;;;;;;6.55;3.00;;;;;;;;;;5087731;28;20063;-71
2023/06/14 04:30:56;;;;;;;4.95;2.70;;;;;;;;;;5089572;28;20044;-69
2023/06/14 04:33:25;;;;;;;6.53;3.00;;;;;;;;;;5088456;28;20043;-68
2023/06/14 04:35:53;;;;;;;6.80;2.78;;;;;;;;;;5080287;28;20051;-68
2023/06/14 04:38:24;;;;;;;7.35;3.20;;;;;;;;;;5085141;28;20044;-68
2023/06/14 04:40:52;;;;;;;4.95;2.85;;;;;;;;;;5079902;28;20067;-68
2023/06/14 04:43:24;;;;;;;9.90;3.28;;;;;;;;;;5084055;28;20058;-68
2023/06/14 04:45:52;;;;;;;5.68;3.05;;;;;;;;;;5090334;28;20046;-68
2023/06/14 04:48:20;;;;;;;9.23;3.17;;;;;;;;;;5087519;28;20048;-67
2023/06/14 04:50:47;;;;;;;8.20;3.13;;;;;;;;;;5084464;28;20101;-67
2023/06/14 04:53:13;;;;;;;7.50;3.10;;;;;;;;;;5085471;28;20073;-69
2023/06/14 04:55:44;;;;;;;8.75;3.08;;;;;;;;;;5075763;28;20056;-68
2023/06/14 04:58:12;;;;;;;9.98;3.30;;;;;;;;;;5069908;28;20044;-68
2023/06/14 05:00:42;;;;;;;6.78;3.38;;;;;;;;;;5091028;28;20052;-71
2023/06/14 05:03:08;;;;;;;5.18;2.97;;;;;;;;;;5086149;28;20048;-71
2023/06/14 05:06:14;;;;;;;6.28;3.25;;;;;;;;;;5085854;28;20131;-70
2023/06/14 05:09:54;;;;;;;6.00;2.83;;;;;;;;;;5083744;28;20580;-70
2023/06/14 05:13:36;;;;;;;8.00;3.40;;;;;;;;;;5083924;28;20044;-70
2023/06/14 05:17:17;;;;;;;6.65;3.17;;;;;;;;;;5074438;28;20098;-69
2023/06/14 05:20:58;;;;;;;5.28;2.70;;;;;;;;;;5083056;27;20036;-68
2023/06/14 05:24:38;;;;;;;5.82;2.85;;;;;;;;;;5083071;28;20048;-70
2023/06/14 05:28:18;;;;;;;5.55;3.00;;;;;;;;;;5081446;28;20505;-67
2023/06/14 05:31:19;;;;;;;8.73;3.10;;;;;;;;;;5082464;28;20043;-72
2023/06/14 05:33:46;;;;;;;9.38;3.13;;;;;;;;;;5087152;28;20062;-69
2023/06/14 05:36:12;;;;;;;6.15;2.90;;;;;;;;;;5076124;28;20049;-66
2023/06/14 05:38:38;;;;;;;12.30;3.58;;;;;;;;;;5087465;28;20040;-69
2023/06/14 05:41:04;;;;;;;7.63;3.20;;;;;;;;;;5086428;28;20047;-66
2023/06/14 05:43:32;;;;;;;25.83;3.80;;;;;;;;;;5079451;28;20055;-65
2023/06/14 05:45:58;;;;;;;12.43;3.33;;;;;;;;;;5082642;28;20108;-68
2023/06/14 05:48:24;;;;;;;8.90;3.40;;;;;;;;;;5084485;28;20047;-67
2023/06/14 05:50:51;;;;;;;7.50;3.22;;;;;;;;;;5083091;28;20052;-67
2023/06/14 05:53:17;;;;;;;10.77;3.33;;;;;;;;;;5085016;28;20063;-66
2023/06/14 05:55:44;;;;;;;10.48;3.28;;;;;;;;;;5083829;28;20496;-67
2023/06/14 05:58:10;;;;;;;10.15;3.85;;;;;;;;;;5084827;28;20054;-68
2023/06/14 06:00:36;;;;;;;8.38;3.22;;;;;;;;;;5087391;28;20122;-67
2023/06/14 06:03:02;;;;;;;6.75;3.63;;;;;;;;;;5091415;28;20059;-67
2023/06/14 06:05:29;;;;;;;11.00;3.28;;;;;;;;;;5080773;28;20044;-70
2023/06/14 06:08:35;;;;;;;10.23;3.95;;;;;;;;;;5089099;28;20056;-68
2023/06/14 06:12:15;;;;;;;8.60;3.35;;;;;;;;;;5089582;28;20093;-68
2023/06/14 06:15:56;;;;;;;11.13;3.58;;;;;;;;;;5094602;28;20040;-68
2023/06/14 06:19:36;;;;;;;14.75;3.65;;;;;;;;;;5090569;28;20047;-68
2023/06/14 06:23:16;;;;;;;11.43;3.63;;;;;;;;;;5088200;28;20089;-67
2023/06/14 06:26:56;;;;;;;11.60;3.63;;;;;;;;;;5072421;28;20040;-69
2023/06/14 06:30:37;;;;;;;11.85;3.85;;;;;;;;;;5089236;28;20081;-69
2023/06/14 06:34:18;;;;;;;9.40;3.47;;;;;;;;;;5086496;28;20069;-69
2023/06/14 06:38:00;;;;;;;14.52;4.00;;;;;;;;;;5082792;28;20036;-70
2023/06/14 06:41:40;;;;;;;9.63;3.10;;;;;;;;;;5090487;28;20130;-68
2023/06/14 06:45:21;;;;;;;9.57;3.70;;;;;;;;;;5088492;28;20058;-67
2023/06/14 06:49:02;;;;;;;16.02;3.72;;;;;;;;;;5090048;28;20559;-70
2023/06/14 06:52:45;;;;;;;15.82;3.47;;;;;;;;;;5086234;28;20890;-65
2023/06/14 06:55:12;;;;;;;14.10;2.97;;;;;;;;;;5083235;28;20044;-64
2023/06/14 06:57:38;;;;;;;15.68;4.03;;;;;;;;;;5084997;28;20453;-66
2023/06/14 07:00:08;;;;;;;9.35;3.03;;;;;;;;;;5082749;28;20040;-66
2023/06/14 07:02:34;;;;;;;21.17;4.30;;;;;;;;;;5088660;28;20503;-66
2023/06/14 07:05:01;;;;;;;13.73;4.90;;;;;;;;;;5090379;28;20032;-69
2023/06/14 07:07:27;;;;;;;14.85;4.20;;;;;;;;;;5080659;28;20055;-66
2023/06/14 07:10:33;;;;;;;19.95;5.03;;;;;;;;;;5082809;28;20054;-67
2023/06/14 07:14:13;;;;;;;18.67;5.72;;;;;;;;;;5071912;28;20079;-68
2023/06/14 07:17:53;;;;;;;13.88;5.75;;;;;;;;;;5074288;28;20357;-65
2023/06/14 07:21:34;;;;;;;15.85;6.38;;;;;;;;;;5082184;28;20048;-64
2023/06/14 07:25:14;;;;;;;15.70;4.82;;;;;;;;;;5082004;28;20071;-66
2023/06/14 07:28:57;;;;;;;14.75;4.03;;;;;;;;;;5085731;28;20127;-66
2023/06/14 07:32:37;;;;;;;11.15;3.53;;;;;;;;;;5087106;28;20047;-66
2023/06/14 07:36:19;;;;;;;8.40;2.85;;;;;;;;;;5089144;28;20040;-68
2023/06/14 07:39:59;;;;;;;8.63;2.50;;;;;;;;;;5087333;28;20047;-66
2023/06/14 07:43:39;;;;;;;7.68;2.22;;;;;;;;;;5089342;28;20047;-66
2023/06/14 07:47:23;;;;;;;10.48;2.03;;;;;;;;;;5086838;28;20056;-67
2023/06/14 07:51:03;;;;;;;9.40;2.35;;;;;;;;;;5070400;28;20481;-67
2023/06/14 07:54:44;;;;;;;11.18;2.88;;;;;;;;;;5083353;28;20075;-68
2023/06/14 07:58:24;;;;;;;5.75;2.90;;;;;;;;;;5087093;28;20040;-69
2023/06/14 08:02:07;;;;;;;13.25;2.17;;;;;;;;;;5093214;28;20071;-67
2023/06/14 08:05:48;;;;;;;7.20;2.20;;;;;;;;;;5090075;28;20044;-66
2023/06/14 08:09:29;;;;;;;13.27;2.50;;;;;;;;;;5089139;28;20052;-66
2023/06/14 08:13:10;;;;;;;4.35;2.20;;;;;;;;;;5085323;28;20119;-67
2023/06/14 08:16:50;;;;;;;5.28;2.22;;;;;;;;;;5086153;28;20040;-68
2023/06/14 08:20:32;;;;;;;4.55;1.65;;;;;;;;;;5081240;28;21057;-65
2023/06/14 08:24:15;;;;;;;3.25;1.50;;;;;;;;;;5088364;28;20316;-67
2023/06/14 08:27:55;;;;;;;4.22;1.60;;;;;;;;;;5085114;28;20091;-69
2023/06/14 08:31:37;;;;;;;9.77;2.03;;;;;;;;;;5088596;28;20040;-67
2023/06/14 08:35:18;;;;;;;5.20;2.17;;;;;;;;;;5085057;28;20090;-68
2023/06/14 08:39:00;;;;;;;6.18;2.33;;;;;;;;;;5087766;28;20113;-70
2023/06/14 08:42:40;;;;;;;6.80;1.75;;;;;;;;;;5085420;28;20139;-67
2023/06/14 08:46:22;;;;;;;4.57;1.40;;;;;;;;;;5078722;28;20673;-65
2023/06/14 08:50:01;;;;;;;3.72;1.80;;;;;;;;;;5084236;28;20411;-66
2023/06/14 08:53:42;;;;;;;4.63;2.00;;;;;;;;;;5080491;28;20221;-66
2023/06/14 08:57:25;;;;;;;10.77;2.65;;;;;;;;;;5086334;28;20122;-68
2023/06/14 09:01:03;;;;;;;8.25;2.55;;;;;;;;;;5082839;28;20040;-66
2023/06/14 09:04:44;;;;;;;5.18;2.97;;;;;;;;;;5086072;28;20453;-69
2023/06/14 09:08:25;;;;;;;5.13;2.30;;;;;;;;;;5081390;28;20384;-66
2023/06/14 09:12:07;;;;;;;13.75;2.80;;;;;;;;;;5084291;28;20115;-69
2023/06/14 09:15:47;;;;;;;4.13;2.22;;;;;;;;;;5086246;28;20182;-67
2023/06/14 09:19:29;;;;;;;3.72;2.00;;;;;;;;;;5080512;28;20063;-70
2023/06/14 09:23:09;;;;;;;4.25;2.30;;;;;;;;;;5085298;28;20127;-67
2023/06/14 09:26:50;;;;;;;5.60;2.03;;;;;;;;;;5083466;28;20054;-67
2023/06/14 09:30:30;;;;;;;5.20;1.90;;;;;;;;;;5083100;28;20052;-68
2023/06/14 09:34:11;;;;;;;3.13;1.60;;;;;;;;;;5080530;28;21272;-65
2023/06/14 09:37:51;;;;;;;3.53;1.55;;;;;;;;;;5086411;28;20035;-69
2023/06/14 09:41:32;;;;;;;2.90;1.63;;;;;;;;;;5078661;28;20068;-65
2023/06/14 09:45:13;;;;;;;4.88;1.77;;;;;;;;;;5082653;28;20212;-67
2023/06/14 09:48:53;;;;;;;5.88;2.10;;;;;;;;;;5083812;28;20069;-65
2023/06/14 09:52:36;;;;;;;5.07;2.08;;;;;;;;;;5086127;28;20040;-69
2023/06/14 09:56:16;;;;;;;3.83;1.60;;;;;;;;;;5085894;28;20044;-66
2023/06/14 10:00:00;;;;;;;3.55;1.92;;;;;;;;;;5082989;28;20503;-67
2023/06/14 10:03:39;;;;;;;2.85;1.55;;;;;;;;;;5077899;28;20129;-68
2023/06/14 10:07:20;;;;;;;7.35;2.20;;;;;;;;;;5084168;28;20052;-67
2023/06/14 10:11:00;;;;;;;4.90;1.52;;;;;;;;;;5080577;28;20075;-66
2023/06/14 10:14:40;;;;;;;5.30;1.80;;;;;;;;;;5084192;28;20104;-67
2023/06/14 10:18:04;;;;;;;4.32;1.88;;;;;;;;;;5085078;28;20040;-67
2023/06/14 10:21:33;;;;;;;6.68;2.00;;;;;;;;;;5086716;28;20365;-68
2023/06/14 10:25:14;;;;;;;4.15;2.03;;;;;;;;;;5084980;28;20054;-68
2023/06/14 10:28:58;;;;;;;6.00;1.50;;;;;;;;;;5078618;28;20051;-66
2023/06/14 10:32:37;;;;;;;3.85;2.15;;;;;;;;;;5082571;28;20040;-66
2023/06/14 10:36:36;;;;;;;4.20;1.67;;;;;;;;;;5080387;28;20052;-68
2023/06/14 10:40:19;;;;;;;7.60;2.03;;;;;;;;;;5085208;28;20482;-67
2023/06/14 10:44:03;;;;;;;3.72;1.92;;;;;;;;;;5082708;28;20478;-66
2023/06/14 10:47:30;;;;;;;6.50;2.15;;;;;;;;;;5086101;28;20101;-70
2023/06/14 10:51:14;;;;;;;11.10;3.25;;;;;;;;;;5084397;28;20064;-68
2023/06/14 10:54:50;;;;;;;4.95;2.25;;;;;;;;;;5089753;28;20705;-69
2023/06/14 10:57:16;;;;;;;9.30;3.08;;;;;;;;;;5086337;28;20088;-65
2023/06/14 10:59:42;;;;;;;9.63;2.75;;;;;;;;;;5093201;28;20097;-68
2023/06/14 11:02:23;;;;;;;5.13;1.60;;;;;;;;;;5089836;28;20055;-65
2023/06/14 11:04:51;;;;;;;4.45;1.50;;;;;;;;;;5088529;28;20166;-65
2023/06/14 11:07:26;;;;;;;7.18;1.70;;;;;;;;;;5087628;28;20507;-66
2023/06/14 11:10:17;;;;;;;2.28;1.48;;;;;;;;;;5088315;28;20044;-67
2023/06/14 11:12:50;;;;;;;2.67;1.50;;;;;;;;;;5091354;28;20051;-66
2023/06/14 11:15:16;;;;;;;3.90;1.88;;;;;;;;;;5087011;28;20056;-66
2023/06/14 11:17:57;;;;;;;4.80;1.40;;;;;;;;;;5091199;28;20106;-68
2023/06/14 11:20:25;;;;;;;4.30;1.83;;;;;;;;;;5089783;28;20672;-67
2023/06/14 11:22:52;;;;;;;3.70;1.75;;;;;;;;;;5087179;28;20056;-67
2023/06/14 11:25:18;;;;;;;4.63;2.10;;;;;;;;;;5102189;28;20060;-69
2023/06/14 11:27:47;;;;;;;8.75;2.47;;;;;;;;;;5089267;28;20052;-69
2023/06/14 11:30:19;;;;;;;5.72;2.40;;;;;;;;;;5100293;28;20040;-68
2023/06/14 11:32:50;;;;;;;4.03;2.90;;;;;;;;;;5080223;28;20052;-68
2023/06/14 11:35:17;;;;;;;7.82;3.10;;;;;;;;;;5076009;28;21049;-67
2023/06/14 11:37:44;;;;;;;4.85;2.67;;;;;;;;;;5085761;28;20522;-67
2023/06/14 11:40:12;;;;;;;3.85;1.88;;;;;;;;;;5084725;28;20135;-66
2023/06/14 11:42:40;;;;;;;4.00;1.50;;;;;;;;;;5096190;28;20040;-67
2023/06/14 11:45:11;;;;;;;7.53;1.80;;;;;;;;;;5090411;28;20059;-66
2023/06/14 11:47:39;;;;;;;4.28;1.30;;;;;;;;;;5089240;28;20060;-67
2023/06/14 11:50:10;;;;;;;3.65;1.83;;;;;;;;;;5091379;28;20091;-66
2023/06/14 11:52:37;;;;;;;3.50;1.83;;;;;;;;;;5085020;28;20047;-65
2023/06/14 11:55:05;;;;;;;6.78;1.98;;;;;;;;;;5087435;28;20563;-68
2023/06/14 11:57:36;;;;;;;5.45;1.90;;;;;;;;;;5080503;28;20401;-66
2023/06/14 12:00:12;;;;;;;11.05;1.70;;;;;;;;;;5082214;28;20640;-68
2023/06/14 12:02:40;;;;;;;3.88;2.10;;;;;;;;;;5081820;28;20137;-73
2023/06/14 12:05:09;;;;;;;3.80;1.60;;;;;;;;;;5087904;28;20047;-65
2023/06/14 12:07:42;;;;;;;5.63;1.48;;;;;;;;;;5090722;28;20078;-68
2023/06/14 12:10:09;;;;;;;3.67;1.73;;;;;;;;;;5078233;28;20079;-70
2023/06/14 12:12:38;;;;;;;3.47;1.70;;;;;;;;;;5086790;28;20048;-65
2023/06/14 12:15:08;;;;;;;3.97;1.67;;;;;;;;;;5080603;28;20101;-65
2023/06/14 12:17:42;;;;;;;4.03;1.60;;;;;;;;;;5087136;28;20512;-67
2023/06/14 12:20:16;;;;;;;3.70;1.55;;;;;;;;;;5089457;28;20502;-71
2023/06/14 12:22:52;;;;;;;3.33;1.38;;;;;;;;;;5082932;28;20052;-68
2023/06/14 12:25:36;;;;;;;2.45;1.50;;;;;;;;;;5087501;28;20434;-67
2023/06/14 12:28:09;;;;;;;4.35;1.40;;;;;;;;;;5083512;28;20452;-67
2023/06/14 12:30:37;;;;;;;2.60;1.55;;;;;;;;;;5088387;28;20135;-67
2023/06/14 12:33:05;;;;;;;3.88;1.33;;;;;;;;;;5088415;28;20051;-67
2023/06/14 12:35:32;;;;;;;3.13;1.15;;;;;;;;;;5085291;28;20496;-68
2023/06/14 12:38:00;;;;;;;2.03;1.33;;;;;;;;;;5088131;28;20051;-67
2023/06/14 12:40:27;;;;;;;3.80;1.70;;;;;;;;;;5088507;28;20352;-67
2023/06/14 12:42:53;;;;;;;5.28;1.50;;;;;;;;;;5086115;28;20135;-68
2023/06/14 12:45:19;;;;;;;2.45;1.38;;;;;;;;;;5083844;28;20134;-71
2023/06/14 12:47:47;;;;;;;3.30;1.50;;;;;;;;;;5087004;28;20056;-67
2023/06/14 12:50:13;;;;;;;2.42;1.40;;;;;;;;;;5088960;28;20071;-67
2023/06/14 12:52:46;;;;;;;2.40;1.33;;;;;;;;;;5086412;28;20036;-67
2023/06/14 12:55:14;;;;;;;4.32;1.77;;;;;;;;;;5087717;28;20579;-67
2023/06/14 12:57:40;;;;;;;1.80;1.60;;;;;;;;;;5084564;28;20044;-67
2023/06/14 13:00:09;;;;;;;3.65;1.52;;;;;;;;;;5085313;28;20039;-68
2023/06/14 13:02:35;;;;;;;2.22;1.45;;;;;;;;;;5085362;28;20569;-68
2023/06/14 13:05:03;;;;;;;6.50;1.40;;;;;;;;;;5087598;28;20256;-73
2023/06/14 13:07:32;;;;;;;3.45;1.30;;;;;;;;;;5087421;28;20064;-68
2023/06/14 13:09:59;;;;;;;4.13;1.30;;;;;;;;;;5086215;28;20101;-70
2023/06/14 13:12:27;;;;;;;3.38;1.23;;;;;;;;;;5084730;28;20596;-66
2023/06/14 13:14:53;;;;;;;4.35;1.45;;;;;;;;;;5081392;28;20397;-68
2023/06/14 13:17:20;;;;;;;4.50;1.52;;;;;;;;;;5076970;28;20052;-67
2023/06/14 13:19:49;;;;;;;2.88;1.30;;;;;;;;;;5087188;28;20044;-69
2023/06/14 13:22:16;;;;;;;2.38;1.20;;;;;;;;;;5069001;28;20048;-69
2023/06/14 13:24:43;;;;;;;4.20;1.50;;;;;;;;;;5089343;28;20052;-70
2023/06/14 13:27:10;;;;;;;3.78;1.25;;;;;;;;;;5083881;28;20422;-66
2023/06/14 13:29:38;;;;;;;4.10;1.35;;;;;;;;;;5083359;28;20048;-67
2023/06/14 13:32:05;;;;;;;4.07;1.33;;;;;;;;;;5085878;28;20408;-67
2023/06/14 13:34:31;;;;;;;2.58;1.15;;;;;;;;;;5087719;28;20527;-65
2023/06/14 13:36:58;;;;;;;2.75;1.30;;;;;;;;;;5086399;28;20114;-67
2023/06/14 13:39:26;;;;;;;5.82;1.48;;;;;;;;;;5085604;28;20139;-66
2023/06/14 13:41:52;;;;;;;4.10;1.40;;;;;;;;;;5089512;28;20046;-67
2023/06/14 13:44:21;;;;;;;3.28;1.23;;;;;;;;;;5087886;28;20044;-67
2023/06/14 13:46:47;;;;;;;4.32;1.10;;;;;;;;;;5084800;28;20135;-67
2023/06/14 13:49:13;;;;;;;2.75;1.40;;;;;;;;;;5087611;28;20324;-66
2023/06/14 13:51:40;;;;;;;4.30;1.10;;;;;;;;;;5085034;28;20484;-69
2023/06/14 13:54:07;;;;;;;2.38;1.30;;;;;;;;;;5083723;28;20636;-67
2023/06/14 13:56:33;;;;;;;1.63;1.05;;;;;;;;;;5080868;28;20044;-67
2023/06/14 13:59:00;;;;;;;2.70;1.10;;;;;;;;;;5084432;28;20058;-71
2023/06/14 14:01:28;;;;;;;4.38;1.40;;;;;;;;;;5084013;28;20054;-68
2023/06/14 14:03:55;;;;;;;2.28;1.20;;;;;;;;;;5084294;28;20075;-67
2023/06/14 14:06:24;;;;;;;1.58;1.23;;;;;;;;;;5083806;28;20103;-69
2023/06/14 14:08:49;;;;;;;3.65;1.17;;;;;;;;;;5085901;28;20070;-67
2023/06/14 14:11:16;;;;;;;4.28;1.67;;;;;;;;;;5086465;28;20237;-68
2023/06/14 14:13:42;;;;;;;1.73;1.40;;;;;;;;;;5084404;28;20124;-67
2023/06/14 14:16:14;;;;;;;3.55;1.10;;;;;;;;;;5082565;28;20461;-69
2023/06/14 14:18:40;;;;;;;3.47;1.20;;;;;;;;;;5084651;28;20048;-68
2023/06/14 14:21:50;;;;;;;7.82;1.40;;;;;;;;;;5081574;28;20075;-68
2023/06/14 14:25:30;;;;;;;9.00;1.60;;;;;;;;;;5086140;28;20389;-67
2023/06/14 14:29:11;;;;;;;2.00;1.52;;;;;;;;;;5090595;28;20127;-66
2023/06/14 14:32:52;;;;;;;3.20;2.05;;;;;;;;;;5086877;28;20380;-67
2023/06/14 14:36:33;;;;;;;4.10;1.48;;;;;;;;;;5084513;28;20059;-69
2023/06/14 14:39:32;;;;;;;2.35;1.20;;;;;;;;;;5086685;28;20058;-68
2023/06/14 14:42:00;;;;;;;3.40;1.30;;;;;;;;;;5076288;28;20441;-65
2023/06/14 14:44:27;;;;;;;2.08;1.40;;;;;;;;;;5084118;28;20075;-72
2023/06/14 14:46:54;;;;;;;3.33;1.85;;;;;;;;;;5084513;28;20047;-74
2023/06/14 14:49:20;;;;;;;5.43;1.60;;;;;;;;;;5083768;28;20484;-70
2023/06/14 14:51:46;;;;;;;4.32;1.50;;;;;;;;;;5086115;28;20048;-69
2023/06/14 14:54:12;;;;;;;7.07;1.80;;;;;;;;;;5089350;28;20051;-70
2023/06/14 14:56:39;;;;;;;4.93;1.40;;;;;;;;;;5087158;28;20043;-67
2023/06/14 14:59:05;;;;;;;3.30;1.30;;;;;;;;;;5088893;28;20044;-66
2023/06/14 15:01:31;;;;;;;3.63;1.27;;;;;;;;;;5086636;28;20482;-67
2023/06/14 15:04:36;;;;;;;2.53;1.20;;;;;;;;;;5082880;28;20992;-69
2023/06/14 15:08:17;;;;;;;2.95;1.20;;;;;;;;;;5086815;28;20052;-69
2023/06/14 15:11:58;;;;;;;4.07;1.02;;;;;;;;;;5086162;28;20192;-69
2023/06/14 15:15:38;;;;;;;5.28;1.48;;;;;;;;;;5088859;28;20557;-66
2023/06/14 15:19:18;;;;;;;1.92;1.25;;;;;;;;;;5081849;28;20127;-69
2023/06/14 15:22:59;;;;;;;3.65;1.40;;;;;;;;;;5081447;28;20040;-69
2023/06/14 15:26:20;;;;;;;7.03;1.50;;;;;;;;;;5081679;28;20083;-69
2023/06/14 15:30:02;;;;;;;9.27;1.40;;;;;;;;;;5074882;28;20132;-69
2023/06/14 15:33:03;;;;;;;4.35;1.67;;;;;;;;;;5083531;28;20453;-66
2023/06/14 15:35:29;;;;;;;4.35;1.33;;;;;;;;;;5078795;28;20048;-71
2023/06/14 15:37:57;;;;;;;3.15;1.55;;;;;;;;;;5085634;28;20436;-69
2023/06/14 15:40:26;;;;;;;4.60;1.73;;;;;;;;;;5090455;28;20118;-70
2023/06/14 15:42:53;;;;;;;2.50;1.40;;;;;;;;;;5087634;28;20051;-68
2023/06/14 15:45:19;;;;;;;5.95;1.70;;;;;;;;;;5066949;28;20185;-67
2023/06/14 15:47:45;;;;;;;2.00;1.40;;;;;;;;;;5088393;28;20138;-67
2023/06/14 15:50:13;;;;;;;6.13;1.60;;;;;;;;;;5091587;28;20048;-66
2023/06/14 15:52:38;;;;;;;5.00;1.55;;;;;;;;;;5084743;28;20492;-68
2023/06/14 15:55:05;;;;;;;2.45;1.50;;;;;;;;;;5084004;28;20047;-67
2023/06/14 15:57:31;;;;;;;5.05;1.45;;;;;;;;;;5082607;28;20048;-68
2023/06/14 16:00:00;;;;;;;9.00;1.40;;;;;;;;;;5085700;28;20048;-68
2023/06/14 16:02:26;;;;;;;4.22;1.40;;;;;;;;;;5083791;28;20073;-67
2023/06/14 16:04:52;;;;;;;2.15;1.60;;;;;;;;;;5084045;28;20063;-70
2023/06/14 16:07:19;;;;;;;7.05;1.25;;;;;;;;;;5085218;28;20036;-67
2023/06/14 16:09:46;;;;;;;2.45;1.40;;;;;;;;;;5088000;28;20048;-69
2023/06/14 16:12:14;;;;;;;3.75;1.50;;;;;;;;;;5079681;28;20054;-69
2023/06/14 16:14:40;;;;;;;3.42;1.40;;;;;;;;;;5088133;28;20457;-70
2023/06/14 16:17:07;;;;;;;4.53;1.30;;;;;;;;;;5087107;28;20066;-69
2023/06/14 16:19:33;;;;;;;3.55;1.45;;;;;;;;;;5083154;28;20499;-68
2023/06/14 16:22:05;;;;;;;6.00;1.55;;;;;;;;;;5090766;28;20384;-67
2023/06/14 16:24:32;;;;;;;3.67;1.77;;;;;;;;;;5084547;28;20064;-69
2023/06/14 16:26:58;;;;;;;1.55;1.08;;;;;;;;;;5082893;28;20052;-67
2023/06/14 16:29:29;;;;;;;9.10;3.17;;;;;;;;;;5086714;28;20052;-68
2023/06/14 16:31:55;;;;;;;6.07;2.42;;;;;;;;;;5085390;28;20399;-68
2023/06/14 16:34:22;;;;;;;4.25;1.70;;;;;;;;;;5081413;28;20051;-67
2023/06/14 16:36:49;;;;;;;3.95;1.95;;;;;;;;;;5088531;28;20191;-70
2023/06/14 16:39:16;;;;;;;6.22;1.92;;;;;;;;;;5087689;28;20044;-67